Time;durP1;ratioP1;P1;durP2;ratioP2;P2;SDS_P1;SDS_P2;PMS_P1;PMS_P2;Temp;Humidity;BMP_temperature;BMP_pressure;BME280_temperature;BME280_humidity;BME280_pressure;Samples;Min_cycle;Max_cycle;Signal;HPM_P1;HPM_P2
2021/05/22 00:01:56;;;;;;;10.05;0.95;;;12.20;99.90;;;;;;5030344;28;20413;-68
2021/05/22 00:04:22;;;;;;;7.18;1.08;;;12.20;99.90;;;;;;5021635;28;20041;-68
2021/05/22 00:06:47;;;;;;;11.30;0.93;;;12.20;99.90;;;;;;5023296;28;20038;-67
2021/05/22 00:09:13;;;;;;;11.02;1.17;;;12.20;99.90;;;;;;5022674;28;20124;-68
2021/05/22 00:11:38;;;;;;;6.20;1.45;;;12.20;99.90;;;;;;5029553;28;20049;-68
2021/05/22 00:14:05;;;;;;;7.60;0.88;;;12.20;99.90;;;;;;5028527;28;20112;-68
2021/05/22 00:16:30;;;;;;;8.27;1.42;;;12.20;99.90;;;;;;5021901;28;20038;-67
2021/05/22 00:18:56;;;;;;;12.35;1.75;;;12.30;99.90;;;;;;5016124;28;20033;-68
2021/05/22 00:21:22;;;;;;;11.77;0.95;;;12.20;99.90;;;;;;5019359;28;20033;-67
2021/05/22 00:23:48;;;;;;;5.03;0.88;;;12.30;99.90;;;;;;5018940;28;20052;-68
2021/05/22 00:26:14;;;;;;;11.10;0.85;;;12.30;99.90;;;;;;5020457;28;20029;-67
2021/05/22 00:28:39;;;;;;;9.98;0.90;;;12.20;99.90;;;;;;5021470;28;20435;-68
2021/05/22 00:31:05;;;;;;;6.30;0.90;;;12.20;99.90;;;;;;5018971;28;20059;-68
2021/05/22 00:33:30;;;;;;;10.55;1.30;;;12.20;99.90;;;;;;5017045;28;20080;-67
2021/05/22 00:35:56;;;;;;;8.93;1.08;;;12.20;99.90;;;;;;5019551;28;20124;-67
2021/05/22 00:38:22;;;;;;;9.75;0.68;;;12.20;99.90;;;;;;5026943;28;20849;-68
2021/05/22 00:40:47;;;;;;;8.50;1.05;;;12.20;99.90;;;;;;5026723;28;20069;-67
2021/05/22 00:43:13;;;;;;;13.98;1.33;;;12.20;99.90;;;;;;5028162;28;20920;-67
2021/05/22 00:45:38;;;;;;;5.30;0.60;;;12.00;99.90;;;;;;5028057;28;20033;-66
2021/05/22 00:48:05;;;;;;;11.77;1.23;;;11.90;99.90;;;;;;5027776;28;20064;-68
2021/05/22 00:50:34;;;;;;;7.97;1.17;;;11.80;99.90;;;;;;5020204;28;20033;-68
2021/05/22 00:53:03;;;;;;;6.30;1.20;;;11.80;99.90;;;;;;5023957;28;20093;-67
2021/05/22 00:55:29;;;;;;;11.10;1.65;;;11.70;99.90;;;;;;5025323;28;20064;-67
2021/05/22 00:57:56;;;;;;;5.57;0.60;;;11.60;99.90;;;;;;5022663;28;20058;-68
2021/05/22 01:00:39;;;;;;;5.57;0.65;;;11.60;99.90;;;;;;5021515;28;20491;-67
2021/05/22 01:03:05;;;;;;;4.55;0.60;;;11.50;99.90;;;;;;5024238;28;20052;-68
2021/05/22 01:05:31;;;;;;;3.67;0.60;;;11.40;99.90;;;;;;5020952;28;20120;-67
2021/05/22 01:07:57;;;;;;;13.23;0.98;;;11.30;99.90;;;;;;5022718;28;20547;-68
2021/05/22 01:10:23;;;;;;;5.97;0.60;;;11.20;99.90;;;;;;5022596;28;20041;-67
2021/05/22 01:12:53;;;;;;;7.40;0.80;;;11.10;99.90;;;;;;5028125;28;20068;-68
2021/05/22 01:15:25;;;;;;;6.10;0.80;;;11.10;99.90;;;;;;5026174;28;20461;-66
2021/05/22 01:17:51;;;;;;;4.05;0.80;;;11.00;99.90;;;;;;5022171;28;20040;-66
2021/05/22 01:20:37;;;;;;;9.90;1.35;;;10.90;99.90;;;;;;5023473;28;20034;-67
2021/05/22 01:23:20;;;;;;;11.60;1.02;;;10.80;99.90;;;;;;5038489;28;20045;-67
2021/05/22 01:25:47;;;;;;;5.20;0.77;;;10.80;99.90;;;;;;5025456;28;20033;-67
2021/05/22 01:28:13;;;;;;;5.45;0.98;;;10.80;99.90;;;;;;5027407;28;20037;-67
2021/05/22 01:30:39;;;;;;;7.90;0.52;;;10.70;99.90;;;;;;5017555;28;20033;-67
2021/05/22 01:33:08;;;;;;;9.82;0.98;;;10.60;99.90;;;;;;5015934;28;20042;-67
2021/05/22 01:35:34;;;;;;;9.57;0.80;;;10.50;99.90;;;;;;5019820;28;20022;-68
2021/05/22 01:37:59;;;;;;;5.53;1.25;;;10.40;99.90;;;;;;5026834;28;20072;-67
2021/05/22 01:40:25;;;;;;;5.82;1.02;;;10.40;99.90;;;;;;5024465;28;20053;-67
2021/05/22 01:42:51;;;;;;;7.15;0.75;;;10.30;99.90;;;;;;5018926;28;20037;-67
2021/05/22 01:45:21;;;;;;;7.78;0.98;;;10.40;99.90;;;;;;5027730;28;20057;-68
2021/05/22 01:47:48;;;;;;;4.60;2.07;;;10.30;99.90;;;;;;5027161;28;20037;-67
2021/05/22 01:50:17;;;;;;;5.78;0.80;;;10.40;99.90;;;;;;5025822;28;20306;-67
2021/05/22 01:52:45;;;;;;;9.30;1.45;;;10.40;99.90;;;;;;5021414;28;20446;-67
2021/05/22 01:55:12;;;;;;;6.55;0.63;;;10.40;99.90;;;;;;5020322;28;20037;-67
2021/05/22 01:57:41;;;;;;;4.68;0.80;;;10.40;99.90;;;;;;5021039;28;20260;-67
2021/05/22 02:00:08;;;;;;;5.28;1.30;;;10.50;99.90;;;;;;5026034;28;20029;-67
2021/05/22 02:02:34;;;;;;;6.07;0.50;;;10.50;99.90;;;;;;5027226;28;20112;-67
2021/05/22 02:05:05;;;;;;;11.52;1.48;;;10.50;99.90;;;;;;5027206;28;20566;-67
2021/05/22 02:07:34;;;;;;;2.50;0.47;;;10.60;99.90;;;;;;5019444;28;20061;-67
2021/05/22 02:10:00;;;;;;;2.13;0.47;;;10.60;99.90;;;;;;5022120;28;20486;-67
2021/05/22 02:12:27;;;;;;;4.03;1.13;;;10.60;99.90;;;;;;5018238;28;20765;-67
2021/05/22 02:14:54;;;;;;;4.30;0.73;;;10.60;99.90;;;;;;5018688;28;20140;-68
2021/05/22 02:17:22;;;;;;;4.90;0.80;;;10.70;99.90;;;;;;5022790;28;20037;-67
2021/05/22 02:19:49;;;;;;;8.48;0.88;;;10.70;99.90;;;;;;5022452;28;20033;-67
2021/05/22 02:22:22;;;;;;;4.90;1.08;;;10.70;99.90;;;;;;5020148;28;20033;-67
2021/05/22 02:24:52;;;;;;;2.70;0.40;;;10.80;99.90;;;;;;5015952;28;20042;-67
2021/05/22 02:27:19;;;;;;;5.10;0.98;;;10.90;99.90;;;;;;5047015;28;20041;-67
2021/05/22 02:29:46;;;;;;;3.22;0.40;;;10.90;99.90;;;;;;5020353;28;20038;-67
2021/05/22 02:32:13;;;;;;;5.68;0.50;;;10.90;99.90;;;;;;5020526;28;20029;-67
2021/05/22 02:34:46;;;;;;;3.55;0.40;;;11.00;99.90;;;;;;5022539;28;20033;-67
2021/05/22 02:37:16;;;;;;;8.23;0.70;;;11.00;99.90;;;;;;5022445;28;20478;-68
2021/05/22 02:39:43;;;;;;;4.55;1.05;;;11.10;99.90;;;;;;5026511;28;20046;-67
2021/05/22 02:42:14;;;;;;;5.65;0.80;;;11.10;99.90;;;;;;5017039;28;20033;-67
2021/05/22 02:44:40;;;;;;;3.88;1.02;;;11.10;99.90;;;;;;5019595;28;20124;-68
2021/05/22 02:47:07;;;;;;;10.77;1.35;;;11.10;99.90;;;;;;5022088;28;20088;-67
2021/05/22 02:49:41;;;;;;;9.75;0.65;;;11.10;99.90;;;;;;5022609;28;20065;-67
2021/05/22 02:52:09;;;;;;;4.20;0.57;;;11.10;99.90;;;;;;5025812;28;20095;-68
2021/05/22 02:54:39;;;;;;;4.82;0.95;;;11.10;99.90;;;;;;5027183;28;20044;-67
2021/05/22 02:57:09;;;;;;;6.22;0.75;;;11.10;99.90;;;;;;5024534;28;20029;-67
2021/05/22 02:59:35;;;;;;;7.45;1.00;;;11.10;99.90;;;;;;5026445;28;20041;-67
2021/05/22 03:02:02;;;;;;;6.75;1.40;;;11.10;99.90;;;;;;5049085;28;20038;-67
2021/05/22 03:04:30;;;;;;;7.13;0.55;;;11.00;99.90;;;;;;5014728;28;20091;-67
2021/05/22 03:06:55;;;;;;;3.78;0.63;;;11.00;99.90;;;;;;5018243;28;20056;-67
2021/05/22 03:09:21;;;;;;;7.90;1.50;;;11.00;99.90;;;;;;5017749;28;20396;-68
2021/05/22 03:11:47;;;;;;;8.25;0.98;;;11.00;99.90;;;;;;5020334;28;20076;-67
2021/05/22 03:14:12;;;;;;;5.72;0.70;;;10.90;99.90;;;;;;5019705;28;20029;-67
2021/05/22 03:16:38;;;;;;;3.28;0.60;;;10.90;99.90;;;;;;5019131;28;20041;-67
2021/05/22 03:19:04;;;;;;;3.33;0.95;;;10.80;99.90;;;;;;5021205;28;20029;-67
2021/05/22 03:21:30;;;;;;;5.43;0.73;;;10.70;99.90;;;;;;5025164;28;20367;-67
2021/05/22 03:23:56;;;;;;;9.05;1.10;;;10.60;99.90;;;;;;5022268;28;20117;-67
2021/05/22 03:26:22;;;;;;;7.05;0.85;;;10.50;99.90;;;;;;5025908;28;20491;-66
2021/05/22 03:28:47;;;;;;;6.50;0.70;;;10.50;99.90;;;;;;5022720;28;20037;-67
2021/05/22 03:31:13;;;;;;;4.63;1.40;;;10.40;99.90;;;;;;5026326;28;20036;-67
2021/05/22 03:33:39;;;;;;;3.33;0.85;;;10.30;99.90;;;;;;5020306;28;20087;-67
2021/05/22 03:36:05;;;;;;;2.40;0.70;;;10.20;99.90;;;;;;5020401;28;20398;-67
2021/05/22 03:38:30;;;;;;;8.05;2.10;;;10.30;99.90;;;;;;5025088;28;20403;-67
2021/05/22 03:40:56;;;;;;;7.13;1.05;;;10.20;99.90;;;;;;5024347;28;20037;-68
2021/05/22 03:43:21;;;;;;;5.43;0.90;;;10.20;99.90;;;;;;5025624;28;20102;-67
2021/05/22 03:45:47;;;;;;;4.13;0.90;;;10.10;99.90;;;;;;5022532;28;20034;-67
2021/05/22 03:48:12;;;;;;;3.72;0.90;;;10.20;99.90;;;;;;5026448;28;20048;-67
2021/05/22 03:50:38;;;;;;;7.18;1.52;;;10.20;99.90;;;;;;5033037;28;20037;-67
2021/05/22 03:53:04;;;;;;;4.85;0.70;;;10.10;99.90;;;;;;5030456;28;20029;-67
2021/05/22 03:55:29;;;;;;;5.60;0.75;;;10.10;99.90;;;;;;5029294;28;20056;-67
2021/05/22 03:57:55;;;;;;;6.75;1.13;;;10.10;99.90;;;;;;5021270;28;20514;-67
2021/05/22 04:00:21;;;;;;;11.10;1.75;;;10.10;99.90;;;;;;5023865;28;20065;-67
2021/05/22 04:02:46;;;;;;;2.63;0.70;;;10.10;99.90;;;;;;5025396;28;20041;-67
2021/05/22 04:05:12;;;;;;;4.03;0.73;;;10.10;99.90;;;;;;5023863;28;20026;-66
2021/05/22 04:07:38;;;;;;;6.20;1.00;;;10.00;99.90;;;;;;5023024;28;20140;-67
2021/05/22 04:10:05;;;;;;;4.63;0.73;;;10.00;99.90;;;;;;5022677;28;20033;-67
2021/05/22 04:12:30;;;;;;;8.55;1.45;;;10.00;99.90;;;;;;5024948;28;20652;-67
2021/05/22 04:14:56;;;;;;;5.03;0.90;;;10.00;99.90;;;;;;5024725;28;20036;-67
2021/05/22 04:17:21;;;;;;;6.97;1.30;;;10.00;99.90;;;;;;5025381;28;20026;-67
2021/05/22 04:19:47;;;;;;;8.63;1.00;;;10.00;99.90;;;;;;5028009;28;20022;-67
2021/05/22 04:22:12;;;;;;;6.22;1.33;;;10.00;99.90;;;;;;5023521;28;20026;-67
2021/05/22 04:24:38;;;;;;;8.93;1.75;;;10.00;99.90;;;;;;5024734;28;20450;-67
2021/05/22 04:27:04;;;;;;;2.72;0.80;;;10.00;99.90;;;;;;5023857;28;20108;-67
2021/05/22 04:29:30;;;;;;;3.97;0.65;;;10.00;99.90;;;;;;5021877;28;20041;-67
2021/05/22 04:31:56;;;;;;;4.95;0.95;;;10.00;99.90;;;;;;5025374;28;20059;-67
2021/05/22 04:34:21;;;;;;;5.60;1.08;;;10.00;99.90;;;;;;5025175;28;20034;-67
2021/05/22 04:36:47;;;;;;;3.55;1.08;;;10.00;99.90;;;;;;5022790;28;20037;-67
2021/05/22 04:39:12;;;;;;;8.95;1.90;;;10.00;99.90;;;;;;5028169;28;20076;-67
2021/05/22 04:41:38;;;;;;;9.60;2.03;;;10.00;99.90;;;;;;5028306;28;20060;-67
2021/05/22 04:44:04;;;;;;;9.45;1.67;;;10.00;99.90;;;;;;5028443;28;20037;-67
2021/05/22 04:46:29;;;;;;;6.88;1.10;;;10.00;99.90;;;;;;5027024;28;20908;-67
2021/05/22 04:48:55;;;;;;;8.05;1.00;;;9.90;99.90;;;;;;5026187;28;20116;-67
2021/05/22 04:51:23;;;;;;;5.07;1.02;;;9.90;99.90;;;;;;5020307;28;20072;-68
2021/05/22 04:53:48;;;;;;;5.65;1.27;;;9.90;99.90;;;;;;5024189;28;20034;-68
2021/05/22 04:56:14;;;;;;;6.93;1.10;;;9.90;99.90;;;;;;5025185;28;20099;-67
2021/05/22 04:58:39;;;;;;;6.30;0.90;;;9.90;99.90;;;;;;5022013;28;20034;-67
2021/05/22 05:01:05;;;;;;;3.38;1.10;;;9.80;99.90;;;;;;5024190;28;20036;-68
2021/05/22 05:03:31;;;;;;;6.47;1.77;;;9.80;99.90;;;;;;5022565;28;20049;-68
2021/05/22 05:05:56;;;;;;;4.80;1.63;;;9.80;99.90;;;;;;5016796;28;20534;-67
2021/05/22 05:08:22;;;;;;;6.13;1.90;;;9.80;99.90;;;;;;5026363;28;20038;-68
2021/05/22 05:10:48;;;;;;;6.45;1.63;;;9.80;99.90;;;;;;5028650;28;20900;-68
2021/05/22 05:13:15;;;;;;;5.82;1.45;;;9.80;99.90;;;;;;5028481;28;20041;-68
2021/05/22 05:15:40;;;;;;;8.20;0.90;;;9.80;99.90;;;;;;5027993;28;20067;-68
2021/05/22 05:18:06;;;;;;;4.95;1.38;;;9.80;99.90;;;;;;5026812;28;20096;-68
2021/05/22 05:20:32;;;;;;;6.82;1.20;;;9.80;99.90;;;;;;5021832;28;20487;-67
2021/05/22 05:22:58;;;;;;;6.88;1.60;;;9.80;99.90;;;;;;5019979;28;20165;-67
2021/05/22 05:25:23;;;;;;;6.13;1.73;;;9.80;99.90;;;;;;5024086;28;20040;-68
2021/05/22 05:27:49;;;;;;;4.85;1.27;;;9.80;99.90;;;;;;5016301;28;20120;-67
2021/05/22 05:30:16;;;;;;;7.95;1.55;;;9.80;99.90;;;;;;5020738;28;20136;-67
2021/05/22 05:32:41;;;;;;;6.28;1.27;;;9.80;99.90;;;;;;5017782;28;20062;-68
2021/05/22 05:35:11;;;;;;;4.60;1.20;;;9.80;99.90;;;;;;5022258;28;20126;-68
2021/05/22 05:37:38;;;;;;;4.20;1.42;;;9.80;99.90;;;;;;5017365;28;20030;-68
2021/05/22 05:40:04;;;;;;;7.07;1.30;;;9.90;99.90;;;;;;5019821;28;20030;-68
2021/05/22 05:42:30;;;;;;;7.03;1.88;;;9.90;99.90;;;;;;5020069;28;20037;-68
2021/05/22 05:44:56;;;;;;;2.70;1.50;;;9.90;99.90;;;;;;5016118;28;20487;-70
2021/05/22 05:47:22;;;;;;;3.05;1.63;;;9.90;99.90;;;;;;5022020;28;20610;-68
2021/05/22 05:49:47;;;;;;;6.50;1.40;;;9.90;99.90;;;;;;5020613;28;20129;-68
2021/05/22 05:52:13;;;;;;;4.65;1.23;;;9.90;99.90;;;;;;5021107;28;20395;-68
2021/05/22 05:54:38;;;;;;;6.88;1.60;;;9.90;99.90;;;;;;5018841;28;20402;-68
2021/05/22 05:57:04;;;;;;;3.92;1.25;;;10.00;99.90;;;;;;5020186;28;20124;-68
2021/05/22 05:59:30;;;;;;;3.70;1.48;;;10.00;99.90;;;;;;5019209;28;20056;-69
2021/05/22 06:01:55;;;;;;;3.60;1.60;;;10.00;99.90;;;;;;5019808;28;20475;-68
2021/05/22 06:04:21;;;;;;;3.40;1.35;;;10.00;99.90;;;;;;5019894;28;20045;-68
2021/05/22 06:06:47;;;;;;;9.20;2.33;;;10.00;99.90;;;;;;5012020;28;20038;-69
2021/05/22 06:09:13;;;;;;;6.05;1.50;;;10.00;99.90;;;;;;5018294;28;20487;-68
2021/05/22 06:11:39;;;;;;;8.18;1.58;;;10.00;99.90;;;;;;5021198;28;20041;-69
2021/05/22 06:14:10;;;;;;;5.18;1.40;;;10.00;99.90;;;;;;5020958;28;20452;-69
2021/05/22 06:16:36;;;;;;;4.63;1.38;;;10.00;99.90;;;;;;5019044;28;20116;-69
2021/05/22 06:19:03;;;;;;;6.30;1.25;;;10.00;99.90;;;;;;5018673;28;20029;-68
2021/05/22 06:21:28;;;;;;;7.15;1.35;;;10.00;99.90;;;;;;5019333;28;20068;-69
2021/05/22 06:23:54;;;;;;;3.10;1.20;;;10.00;99.90;;;;;;5021286;28;20122;-68
2021/05/22 06:26:20;;;;;;;10.13;1.33;;;10.10;99.90;;;;;;5025341;28;20037;-68
2021/05/22 06:28:45;;;;;;;5.18;1.30;;;10.10;99.90;;;;;;5025579;28;20030;-69
2021/05/22 06:31:11;;;;;;;5.47;1.63;;;10.20;99.90;;;;;;5015273;28;20034;-69
2021/05/22 06:33:37;;;;;;;4.60;1.42;;;10.20;99.90;;;;;;5018270;28;20033;-69
2021/05/22 06:36:04;;;;;;;5.32;1.55;;;10.20;99.90;;;;;;5023146;28;20042;-69
2021/05/22 06:38:29;;;;;;;5.18;1.60;;;10.30;99.90;;;;;;5025487;28;20038;-68
2021/05/22 06:40:55;;;;;;;6.07;1.30;;;10.30;99.90;;;;;;5022235;28;20037;-69
2021/05/22 06:43:21;;;;;;;2.70;1.30;;;10.30;99.90;;;;;;5024479;28;20172;-69
2021/05/22 06:45:57;;;;;;;3.15;1.85;;;10.30;99.90;;;;;;5023476;28;20037;-69
2021/05/22 06:48:24;;;;;;;2.35;1.05;;;10.40;99.90;;;;;;5026295;28;20033;-69
2021/05/22 06:50:49;;;;;;;7.10;1.80;;;10.30;99.90;;;;;;5027547;28;20037;-68
2021/05/22 06:53:15;;;;;;;3.45;1.67;;;10.30;99.90;;;;;;5018749;28;20064;-69
2021/05/22 06:55:40;;;;;;;8.00;1.30;;;10.40;99.90;;;;;;5026429;28;20036;-69
2021/05/22 06:58:06;;;;;;;4.72;1.58;;;10.40;99.90;;;;;;5023643;28;20045;-69
2021/05/22 07:00:32;;;;;;;6.20;1.40;;;10.40;99.90;;;;;;5022587;28;20116;-69
2021/05/22 07:02:58;;;;;;;3.70;1.67;;;10.40;99.90;;;;;;5027208;28;20051;-69
2021/05/22 07:05:23;;;;;;;3.25;1.55;;;10.40;99.90;;;;;;5027398;28;20434;-70
2021/05/22 07:07:49;;;;;;;7.18;1.42;;;10.50;99.90;;;;;;5026707;28;20033;-69
2021/05/22 07:10:15;;;;;;;5.72;1.50;;;10.50;99.90;;;;;;5025848;28;20382;-69
2021/05/22 07:12:41;;;;;;;7.15;1.30;;;10.50;99.90;;;;;;5021824;28;20038;-69
2021/05/22 07:15:08;;;;;;;5.18;1.50;;;10.60;99.90;;;;;;5028944;28;20510;-70
2021/05/22 07:17:34;;;;;;;5.22;1.40;;;10.60;99.90;;;;;;5026312;28;20103;-69
2021/05/22 07:20:00;;;;;;;6.78;1.98;;;10.60;99.90;;;;;;5027892;28;20030;-70
2021/05/22 07:22:26;;;;;;;4.63;1.63;;;10.60;99.90;;;;;;5026485;28;20521;-69
2021/05/22 07:24:52;;;;;;;3.80;1.52;;;10.60;99.90;;;;;;5029494;28;20433;-69
2021/05/22 07:27:18;;;;;;;4.85;1.20;;;10.60;99.90;;;;;;5027572;28;20056;-70
2021/05/22 07:29:49;;;;;;;5.93;2.13;;;10.60;99.90;;;;;;5027167;28;20073;-68
2021/05/22 07:32:15;;;;;;;6.15;1.48;;;10.60;99.90;;;;;;5029414;28;20069;-69
2021/05/22 07:34:40;;;;;;;5.00;1.63;;;10.60;99.90;;;;;;5023049;28;20068;-69
2021/05/22 07:37:06;;;;;;;3.72;1.40;;;10.50;99.90;;;;;;5027466;28;20033;-70
2021/05/22 07:39:32;;;;;;;5.40;1.50;;;10.50;99.90;;;;;;5022123;28;20034;-68
2021/05/22 07:41:58;;;;;;;5.32;1.75;;;10.50;99.90;;;;;;5029369;28;20303;-70
2021/05/22 07:44:24;;;;;;;4.57;1.70;;;10.50;99.90;;;;;;5021415;28;20040;-70
2021/05/22 07:46:49;;;;;;;5.13;1.88;;;10.60;99.90;;;;;;5025799;28;20033;-69
2021/05/22 07:49:15;;;;;;;6.85;2.40;;;10.60;99.90;;;;;;5027016;28;20461;-72
2021/05/22 07:51:42;;;;;;;5.30;1.92;;;10.60;99.90;;;;;;5025587;28;20499;-70
2021/05/22 07:54:07;;;;;;;3.22;1.58;;;10.60;99.90;;;;;;5021571;28;20549;-70
2021/05/22 07:56:33;;;;;;;4.15;2.00;;;10.60;99.90;;;;;;5020813;28;20030;-70
2021/05/22 07:58:59;;;;;;;3.17;1.67;;;10.60;99.90;;;;;;4992454;23;20042;-71
2021/05/22 08:01:25;;;;;;;2.10;1.67;;;10.60;99.90;;;;;;4991482;28;20405;-70
2021/05/22 08:03:50;;;;;;;5.13;1.50;;;10.60;99.90;;;;;;4989452;28;20038;-69
2021/05/22 08:06:16;;;;;;;4.43;1.40;;;10.60;99.90;;;;;;4988124;28;20038;-69
2021/05/22 08:08:44;;;;;;;6.53;1.83;;;10.60;99.90;;;;;;4966573;28;20031;-69
2021/05/22 08:11:10;;;;;;;2.90;1.80;;;10.60;99.90;;;;;;4975676;28;20150;-69
2021/05/22 08:13:36;;;;;;;5.45;2.03;;;10.60;99.90;;;;;;4967946;28;20039;-72
2021/05/22 08:16:02;;;;;;;6.38;1.88;;;10.60;99.90;;;;;;4978266;28;20413;-70
2021/05/22 08:18:28;;;;;;;5.53;2.20;;;10.70;99.90;;;;;;4983581;28;20043;-70
2021/05/22 08:20:54;;;;;;;2.65;1.40;;;10.90;99.90;;;;;;4969433;28;20043;-70
2021/05/22 08:23:20;;;;;;;6.95;1.50;;;10.90;99.90;;;;;;4969500;28;20110;-70
2021/05/22 08:25:46;;;;;;;5.22;1.73;;;11.10;99.90;;;;;;4969333;28;20049;-70
2021/05/22 08:28:19;;;;;;;5.28;1.55;;;11.10;99.90;;;;;;4968256;28;20026;-70
2021/05/22 08:30:44;;;;;;;2.40;1.23;;;11.20;99.90;;;;;;4969821;28;20360;-70
2021/05/22 08:33:10;;;;;;;3.50;1.38;;;11.30;99.90;;;;;;4969262;28;20027;-70
2021/05/22 08:35:35;;;;;;;3.95;1.10;;;11.30;99.90;;;;;;4969884;28;20093;-70
2021/05/22 08:38:01;;;;;;;5.60;1.40;;;11.30;99.90;;;;;;4967949;28;20045;-70
2021/05/22 08:40:28;;;;;;;3.30;1.10;;;11.30;99.90;;;;;;4968248;28;20058;-70
2021/05/22 08:42:54;;;;;;;3.60;1.17;;;11.40;99.90;;;;;;4969633;28;20019;-70
2021/05/22 08:45:23;;;;;;;3.53;0.73;;;11.40;99.90;;;;;;4965512;28;20081;-69
2021/05/22 08:47:50;;;;;;;0.88;0.60;;;11.40;99.90;;;;;;4969607;28;20096;-71
2021/05/22 08:50:17;;;;;;;6.63;1.10;;;11.50;99.90;;;;;;4969248;28;20137;-70
2021/05/22 08:52:44;;;;;;;2.55;0.70;;;11.50;99.90;;;;;;4969241;28;20042;-70
2021/05/22 08:55:10;;;;;;;3.28;0.80;;;11.60;99.90;;;;;;4968922;28;20522;-70
2021/05/22 08:57:37;;;;;;;2.05;0.82;;;11.60;99.90;;;;;;4968523;28;20038;-70
2021/05/22 09:00:08;;;;;;;2.90;1.10;;;11.60;99.90;;;;;;4965728;28;20069;-70
2021/05/22 09:02:34;;;;;;;3.45;1.15;;;11.70;99.90;;;;;;4965397;28;20406;-70
2021/05/22 09:05:05;;;;;;;4.80;0.98;;;11.80;99.90;;;;;;4968635;28;20042;-70
2021/05/22 09:07:32;;;;;;;1.95;0.75;;;11.90;99.90;;;;;;4967402;28;20142;-70
2021/05/22 09:10:13;;;;;;;0.85;0.70;;;11.90;99.90;;;;;;4968105;28;20038;-70
2021/05/22 09:12:39;;;;;;;;;;;11.80;99.90;;;;;;4966134;28;20266;-70
2021/05/22 09:15:21;;;;;;;1.70;0.73;;;11.90;99.90;;;;;;4966603;28;19921;-70
2021/05/22 09:17:51;;;;;;;3.95;1.08;;;11.90;99.90;;;;;;4967871;28;20050;-70
2021/05/22 09:20:29;;;;;;;3.17;0.90;;;12.00;99.90;;;;;;4968538;28;20039;-69
2021/05/22 09:23:01;;;;;;;2.17;0.70;;;12.00;99.90;;;;;;4969920;28;20042;-70
2021/05/22 09:25:29;;;;;;;2.88;0.80;;;12.10;99.90;;;;;;4968512;28;20458;-70
2021/05/22 09:27:55;;;;;;;3.97;0.90;;;12.20;99.90;;;;;;4968614;28;20102;-70
2021/05/22 09:30:23;;;;;;;2.90;0.60;;;12.20;99.90;;;;;;4968080;28;20031;-70
2021/05/22 09:32:49;;;;;;;3.03;0.60;;;12.10;99.90;;;;;;4969391;28;20035;-70
2021/05/22 09:35:16;;;;;;;1.02;0.63;;;12.10;99.90;;;;;;4968343;28;20031;-70
2021/05/22 09:37:46;;;;;;;1.77;0.65;;;12.00;99.90;;;;;;4962948;28;20062;-70
2021/05/22 09:40:27;;;;;;;4.43;1.15;;;12.00;99.90;;;;;;4968670;28;20557;-69
2021/05/22 09:42:55;;;;;;;1.85;0.88;;;12.00;99.90;;;;;;4969069;28;20073;-69
2021/05/22 09:45:28;;;;;;;3.35;0.80;;;12.00;99.90;;;;;;4982469;28;20087;-69
2021/05/22 09:47:57;;;;;;;6.18;1.38;;;12.00;99.90;;;;;;4967454;28;20039;-69
2021/05/22 09:50:41;;;;;;;3.25;0.93;;;12.20;99.90;;;;;;4967498;28;20497;-69
2021/05/22 09:53:28;;;;;;;3.72;0.93;;;12.50;99.90;;;;;;4963214;28;20573;-72
2021/05/22 09:56:14;;;;;;;4.93;1.52;;;12.60;99.90;;;;;;4968574;28;20758;-69
2021/05/22 09:58:45;;;;;;;3.63;1.10;;;12.60;99.90;;;;;;4964671;28;20046;-69
2021/05/22 10:01:11;;;;;;;;;;;12.50;99.90;;;;;;4967807;28;20446;-69
2021/05/22 10:03:37;;;;;;;5.38;0.38;;;12.20;99.90;;;;;;4967464;28;19957;-69
2021/05/22 10:06:03;;;;;;;2.50;0.50;;;12.10;99.90;;;;;;4968274;28;20035;-69
2021/05/22 10:08:28;;;;;;;2.45;0.50;;;11.90;99.90;;;;;;4967829;28;20557;-72
2021/05/22 10:10:56;;;;;;;1.20;0.25;;;11.80;99.90;;;;;;4968918;28;20034;-69
2021/05/22 10:13:23;;;;;;;1.77;0.40;;;11.70;99.90;;;;;;4968596;28;20034;-69
2021/05/22 10:15:54;;;;;;;2.30;0.30;;;11.60;99.90;;;;;;4966599;28;20042;-69
2021/05/22 10:18:22;;;;;;;2.00;0.50;;;11.60;99.90;;;;;;4963989;28;20129;-69
2021/05/22 10:20:48;;;;;;;1.30;0.20;;;11.50;99.90;;;;;;4966864;28;20877;-69
2021/05/22 10:23:14;;;;;;;3.40;0.40;;;11.50;99.90;;;;;;4967470;28;20053;-69
2021/05/22 10:25:41;;;;;;;4.40;0.40;;;11.60;99.90;;;;;;4966976;28;20038;-69
2021/05/22 10:28:08;;;;;;;3.72;0.90;;;11.70;99.90;;;;;;4967046;28;20038;-69
2021/05/22 10:30:35;;;;;;;3.92;0.40;;;12.00;99.90;;;;;;4965065;28;20122;-70
2021/05/22 10:33:02;;;;;;;3.90;0.70;;;12.20;99.90;;;;;;4969664;28;20037;-70
2021/05/22 10:35:28;;;;;;;1.73;0.50;;;12.40;99.90;;;;;;4971656;28;20089;-70
2021/05/22 10:37:54;;;;;;;3.33;0.50;;;12.60;99.90;;;;;;4965686;28;20524;-70
2021/05/22 10:40:43;;;;;;;1.52;0.40;;;12.60;99.90;;;;;;4967101;28;20027;-70
2021/05/22 10:43:09;;;;;;;2.00;0.60;;;12.60;99.90;;;;;;4968188;28;20030;-70
2021/05/22 10:45:37;;;;;;;1.92;0.60;;;12.50;99.90;;;;;;4965989;28;20077;-70
2021/05/22 10:48:06;;;;;;;3.20;0.57;;;12.40;99.90;;;;;;4961984;28;20040;-70
2021/05/22 10:50:46;;;;;;;3.47;0.77;;;12.30;99.90;;;;;;4969482;28;20030;-70
2021/05/22 10:53:29;;;;;;;2.17;1.23;;;12.20;99.90;;;;;;4964949;28;20053;-70
2021/05/22 10:56:17;;;;;;;2.40;0.82;;;12.10;99.90;;;;;;4966401;28;20059;-70
2021/05/22 10:58:58;;;;;;;6.57;1.20;;;12.00;99.90;;;;;;4963537;28;20117;-70
2021/05/22 11:01:23;;;;;;;3.40;0.90;;;12.10;99.90;;;;;;4957394;28;20050;-70
2021/05/22 11:04:11;;;;;;;7.18;1.30;;;12.30;99.90;;;;;;4962339;28;20046;-70
2021/05/22 11:06:41;;;;;;;3.00;0.90;;;12.60;99.90;;;;;;4963848;28;20043;-70
2021/05/22 11:09:25;;;;;;;4.47;1.00;;;12.70;99.90;;;;;;4963973;28;20509;-70
2021/05/22 11:11:51;;;;;;;4.03;1.10;;;12.60;99.90;;;;;;4970695;28;20043;-70
2021/05/22 11:14:39;;;;;;;7.60;1.40;;;12.50;99.90;;;;;;4958830;28;20094;-71
2021/05/22 11:17:20;;;;;;;3.83;1.35;;;12.40;99.90;;;;;;4967592;28;20030;-70
2021/05/22 11:20:09;;;;;;;5.05;1.05;;;12.30;99.90;;;;;;4972902;28;20041;-70
2021/05/22 11:22:54;;;;;;;3.60;0.90;;;12.50;99.90;;;;;;4959931;28;20054;-70
2021/05/22 11:25:20;;;;;;;5.20;1.08;;;12.60;99.90;;;;;;4963600;28;20093;-70
2021/05/22 11:30:35;;;;;;;5.72;1.42;;;12.90;99.90;;;;;;4970323;28;20037;-70
2021/05/22 11:33:26;;;;;;;4.85;1.15;;;13.20;99.90;;;;;;4959258;28;20042;-71
2021/05/22 11:35:57;;;;;;;7.28;1.45;;;13.40;99.90;;;;;;4969200;28;20122;-70
2021/05/22 11:38:23;;;;;;;;;;;13.40;99.90;;;;;;4969068;28;20035;-70
2021/05/22 11:40:51;;;;;;;3.47;0.75;;;13.00;99.90;;;;;;4987021;28;19949;-71
2021/05/22 11:43:18;;;;;;;3.97;0.82;;;12.70;99.90;;;;;;4991767;28;20034;-75
2021/05/22 11:45:53;;;;;;;6.45;1.38;;;12.60;99.90;;;;;;4992423;28;20031;-71
2021/05/22 11:48:24;;;;;;;1.88;0.88;;;12.60;99.90;;;;;;4988718;28;20027;-70
2021/05/22 11:50:51;;;;;;;5.05;1.00;;;12.60;99.90;;;;;;4982539;28;20506;-70
2021/05/22 11:53:18;;;;;;;5.78;0.85;;;12.80;99.90;;;;;;4970677;28;20114;-70
2021/05/22 11:55:44;;;;;;;2.17;0.60;;;13.00;99.90;;;;;;4970835;28;20053;-70
2021/05/22 11:58:11;;;;;;;2.03;0.60;;;13.10;99.90;;;;;;4984189;28;20506;-70
2021/05/22 12:00:38;;;;;;;9.40;1.45;;;13.20;99.90;;;;;;4970547;28;20075;-70
2021/05/22 12:03:05;;;;;;;3.63;0.90;;;13.30;99.90;;;;;;4970183;28;20042;-70
2021/05/22 12:05:40;;;;;;;5.13;0.90;;;13.20;99.90;;;;;;4970043;28;20097;-70
2021/05/22 12:08:14;;;;;;;2.03;0.50;;;13.60;99.90;;;;;;4966481;28;20077;-70
2021/05/22 12:10:40;;;;;;;7.03;1.05;;;13.90;99.90;;;;;;4969623;28;20142;-71
2021/05/22 12:13:06;;;;;;;4.93;0.70;;;14.20;99.90;;;;;;4968938;28;20783;-69
2021/05/22 12:15:33;;;;;;;2.33;0.45;;;14.40;99.90;;;;;;4968887;28;20097;-72
2021/05/22 12:18:06;;;;;;;5.88;1.20;;;14.30;99.90;;;;;;4967877;28;20790;-72
2021/05/22 12:20:48;;;;;;;7.88;1.40;;;14.40;99.90;;;;;;4968589;28;20035;-72
2021/05/22 12:23:31;;;;;;;4.45;0.45;;;14.20;99.90;;;;;;4968810;28;20034;-72
2021/05/22 12:25:59;;;;;;;4.88;0.50;;;14.00;99.90;;;;;;4967865;28;20640;-72
2021/05/22 12:28:25;;;;;;;8.63;0.85;;;13.90;99.90;;;;;;4967371;28;20061;-72
2021/05/22 12:30:57;;;;;;;1.27;0.50;;;13.80;99.90;;;;;;4961556;28;20027;-72
2021/05/22 12:33:24;;;;;;;5.25;0.52;;;13.80;99.90;;;;;;4963504;28;20089;-72
2021/05/22 12:36:02;;;;;;;2.05;0.50;;;13.60;99.90;;;;;;4969649;28;20505;-72
2021/05/22 12:38:42;;;;;;;7.50;0.80;;;13.40;99.90;;;;;;4961419;28;20895;-70
2021/05/22 12:41:09;;;;;;;2.63;0.68;;;13.50;99.90;;;;;;4969951;28;20077;-72
2021/05/22 12:43:47;;;;;;;1.30;0.40;;;13.70;99.90;;;;;;4969180;28;20046;-69
2021/05/22 12:46:28;;;;;;;6.30;1.05;;;13.90;99.90;;;;;;4983987;28;20121;-72
2021/05/22 12:49:06;;;;;;;5.63;0.60;;;14.20;99.90;;;;;;4969197;28;20067;-71
2021/05/22 12:51:31;;;;;;;1.65;0.50;;;14.20;99.90;;;;;;4968578;28;20823;-72
2021/05/22 12:53:57;;;;;;;4.32;1.67;;;14.60;99.90;;;;;;4969468;28;20055;-71
2021/05/22 12:56:23;;;;;;;2.20;0.82;;;14.80;99.90;;;;;;4968123;28;20043;-71